Time;durP1;ratioP1;P1;durP2;ratioP2;P2;SDS_P1;SDS_P2;PMS_P1;PMS_P2;Temp;Humidity;BMP_temperature;BMP_pressure;BME280_temperature;BME280_humidity;BME280_pressure;Samples;Min_cycle;Max_cycle;Signal;HPM_P1;HPM_P2
2022/04/10 00:01:24;;;;;;;;;13.67;12.33;;;;;22.27;69.21;101778.84;5077284;28;47176;-66
2022/04/10 00:03:49;;;;;;;;;15.00;14.33;;;;;22.28;69.23;101780.63;5078218;28;51268;-63
2022/04/10 00:06:15;;;;;;;;;12.67;12.33;;;;;22.27;69.06;101768.97;5077580;28;45337;-63
2022/04/10 00:08:40;;;;;;;;;13.33;12.00;;;;;22.28;69.13;101772.53;5071363;28;45437;-64
2022/04/10 00:11:06;;;;;;;;;14.33;14.33;;;;;22.27;68.81;101771.66;5076482;28;59185;-63
2022/04/10 00:13:32;;;;;;;;;16.00;13.00;;;;;22.27;68.80;101766.28;5073376;28;54734;-63
2022/04/10 00:15:57;;;;;;;;;16.67;15.00;;;;;22.27;69.25;101758.22;5076593;28;45423;-63
2022/04/10 00:18:22;;;;;;;;;13.00;11.67;;;;;22.26;68.82;101758.22;5078603;28;55499;-64
2022/04/10 00:20:48;;;;;;;;;14.00;14.00;;;;;22.26;69.13;101759.09;5069661;28;60473;-65
2022/04/10 00:23:14;;;;;;;;;13.33;12.00;;;;;22.26;68.81;101752.84;5079334;28;45335;-66
2022/04/10 00:25:39;;;;;;;;;13.33;11.33;;;;;22.24;69.11;101760.94;5079270;28;45374;-63
2022/04/10 00:28:04;;;;;;;;;14.67;14.00;;;;;22.25;68.92;101759.16;5053331;28;45698;-65
2022/04/10 00:30:32;;;;;;;;;15.00;13.33;;;;;22.22;69.06;101755.63;5076483;28;61459;-63
2022/04/10 00:32:58;;;;;;;;;14.00;11.00;;;;;22.21;68.77;101756.53;5075646;28;45291;-63
2022/04/10 00:35:23;;;;;;;;;13.33;13.00;;;;;22.20;69.15;101757.44;5071982;28;45514;-62
2022/04/10 00:37:48;;;;;;;;;16.33;11.33;;;;;22.22;68.91;101754.75;5074997;28;52367;-65
2022/04/10 00:40:14;;;;;;;;;12.00;10.00;;;;;22.22;69.09;101754.75;5078119;28;47709;-62
2022/04/10 00:42:41;;;;;;;;;14.67;13.67;;;;;22.21;68.85;101756.53;5078974;28;45443;-65
2022/04/10 00:45:08;;;;;;;;;12.67;12.67;;;;;22.19;69.04;101749.41;5052598;28;45307;-65
2022/04/10 00:47:33;;;;;;;;;14.67;11.67;;;;;22.18;69.21;101758.41;5073201;28;45510;-65
2022/04/10 00:50:01;;;;;;;;;13.67;10.33;;;;;22.18;68.93;101755.72;5077557;28;46870;-62
2022/04/10 00:52:27;;;;;;;;;11.67;10.33;;;;;22.19;69.02;101757.47;5070618;28;45399;-64
2022/04/10 00:54:53;;;;;;;;;11.67;10.33;;;;;22.17;68.66;101753.94;5051385;28;45287;-63
2022/04/10 00:57:18;;;;;;;;;11.67;10.33;;;;;22.19;69.02;101757.47;5060522;28;45411;-64
2022/04/10 00:59:44;;;;;;;;;14.33;11.33;;;;;22.17;68.28;101757.53;5078359;28;46680;-64
2022/04/10 01:02:09;;;;;;;;;14.00;9.33;;;;;22.19;68.73;101760.16;5070709;28;45577;-63
2022/04/10 01:04:36;;;;;;;;;14.33;11.33;;;;;22.17;68.80;101753.94;5073096;28;45469;-63
2022/04/10 01:07:02;;;;;;;;;11.67;10.00;;;;;22.15;68.89;101750.38;5078618;28;45465;-66
2022/04/10 01:09:27;;;;;;;;;12.00;11.00;;;;;22.14;68.63;101748.63;5057075;28;46537;-64
2022/04/10 01:11:53;;;;;;;;;11.00;11.00;;;;;22.13;68.56;101750.44;5077825;28;57619;-65
2022/04/10 01:14:19;;;;;;;;;15.67;12.00;;;;;22.12;68.44;101762.13;5049915;28;45532;-65
2022/04/10 01:16:46;;;;;;;;;11.67;9.00;;;;;22.14;68.70;101754.00;5077253;28;45364;-63
2022/04/10 01:19:12;;;;;;;;;11.00;11.00;;;;;22.14;68.58;101759.38;5076998;28;46496;-63
2022/04/10 01:21:46;;;;;;;;;13.33;9.00;;;;;22.14;68.20;101762.06;5077383;28;57305;-64
2022/04/10 01:24:12;;;;;;;;;14.33;12.00;;;;;22.13;68.37;101749.56;5078443;28;45556;-65
2022/04/10 01:26:37;;;;;;;;;14.00;10.33;;;;;22.13;68.76;101760.31;5077902;28;45450;-63
2022/04/10 01:29:03;;;;;;;;;14.00;14.00;;;;;22.14;68.67;101759.38;5074562;28;45807;-65
2022/04/10 01:31:30;;;;;;;;;11.00;11.00;;;;;22.14;68.41;101751.31;5077472;28;46558;-63
2022/04/10 01:34:00;;;;;;;;;10.67;10.67;;;;;22.13;67.95;101757.63;5054649;28;45462;-63
2022/04/10 01:36:28;;;;;;;;;10.00;10.00;;;;;22.10;68.29;101757.66;5077617;28;45554;-63
2022/04/10 01:38:55;;;;;;;;;13.00;10.67;;;;;22.11;68.07;101756.78;5070814;28;45639;-67
2022/04/10 01:41:21;;;;;;;;;11.00;11.00;;;;;22.11;68.16;101760.34;5072975;28;45450;-63
2022/04/10 01:43:48;;;;;;;;;12.00;10.33;;;;;22.09;68.15;101748.69;5076019;28;45173;-65
2022/04/10 01:46:15;;;;;;;;;10.67;10.67;;;;;22.09;68.39;101751.38;5071349;28;45519;-62
2022/04/10 01:48:41;;;;;;;;;11.00;10.00;;;;;22.12;68.25;101753.16;5074645;28;46210;-65
2022/04/10 01:51:07;;;;;;;;;10.00;10.00;;;;;22.10;68.01;101746.88;5062559;28;45352;-63
2022/04/10 01:53:33;;;;;;;;;11.00;10.00;;;;;22.08;68.19;101736.16;5072988;28;45510;-63
2022/04/10 01:55:58;;;;;;;;;12.67;12.00;;;;;22.06;67.65;101738.03;5069911;28;45424;-63
2022/04/10 01:58:24;;;;;;;;;12.00;11.00;;;;;22.08;68.23;101741.53;5076856;28;61411;-63
2022/04/10 02:00:49;;;;;;;;;14.00;11.67;;;;;22.09;67.81;101735.25;5075344;28;45331;-63
2022/04/10 02:03:14;;;;;;;;;10.67;10.67;;;;;22.07;68.27;101731.72;5077517;28;52404;-62
2022/04/10 02:05:40;;;;;;;;;13.67;11.00;;;;;22.09;68.17;101745.13;5073420;28;54487;-63
2022/04/10 02:08:05;;;;;;;;;12.67;12.67;;;;;22.07;67.47;101737.09;5075919;28;55887;-62
2022/04/10 02:10:31;;;;;;;;;12.00;11.00;;;;;22.07;67.63;101725.44;5077660;28;45383;-63
2022/04/10 02:12:57;;;;;;;;;15.33;10.00;;;;;22.08;67.57;101732.59;5077239;28;45490;-65
2022/04/10 02:15:22;;;;;;;;;10.67;10.00;;;;;22.09;67.85;101737.94;5072383;28;45433;-65
2022/04/10 02:17:47;;;;;;;;;10.00;9.33;;;;;22.07;67.60;101733.53;5076920;28;50404;-63
2022/04/10 02:20:13;;;;;;;;;13.33;11.33;;;;;22.09;67.55;101737.06;5069411;28;59231;-63
2022/04/10 02:22:38;;;;;;;;;12.33;10.00;;;;;22.09;67.41;101737.06;5071851;28;53872;-62
2022/04/10 02:25:04;;;;;;;;;12.67;10.00;;;;;22.09;67.67;101735.25;5076736;28;54962;-64
2022/04/10 02:27:29;;;;;;;;;13.00;10.00;;;;;22.11;67.75;101743.34;5076739;28;45608;-63
2022/04/10 02:29:55;;;;;;;;;14.67;12.00;;;;;22.10;67.55;101741.50;5072513;28;58260;-63
2022/04/10 02:32:20;;;;;;;;;11.67;10.00;;;;;22.11;67.53;101740.66;5067539;28;45816;-66
2022/04/10 02:34:45;;;;;;;;;12.00;11.00;;;;;22.09;67.03;101739.75;5076788;28;45475;-63
2022/04/10 02:37:11;;;;;;;;;10.00;9.67;;;;;22.09;67.14;101745.13;5077010;28;48237;-62
2022/04/10 02:39:36;;;;;;;;;12.00;10.67;;;;;22.08;67.42;101746.94;5076855;28;45507;-65
2022/04/10 02:42:02;;;;;;;;;13.00;13.00;;;;;22.11;67.12;101744.22;5195371;22;54250;-63
2022/04/10 02:44:27;;;;;;;;;12.00;10.67;;;;;22.12;67.01;101745.09;5074611;28;45686;-63
2022/04/10 02:46:53;;;;;;;;;11.33;11.00;;;;;22.11;66.69;101744.22;5069427;28;62856;-66
2022/04/10 02:49:19;;;;;;;;;13.33;11.00;;;;;22.11;66.85;101749.59;5072462;28;45489;-65
2022/04/10 02:51:46;;;;;;;;;13.67;10.33;;;;;22.09;66.68;101743.31;5076336;28;45322;-63
2022/04/10 02:54:11;;;;;;;;;10.67;10.00;;;;;22.11;66.67;101751.41;5071485;28;45556;-63
2022/04/10 02:56:37;;;;;;;;;15.33;10.00;;;;;22.09;66.97;101753.19;5075279;28;64572;-63
2022/04/10 02:59:02;;;;;;;;;12.67;11.33;;;;;22.12;66.89;101756.75;5071077;28;45363;-63
2022/04/10 03:01:27;;;;;;;;;13.00;11.67;;;;;22.09;66.93;101739.75;5076587;28;51781;-64
2022/04/10 03:03:53;;;;;;;;;16.00;11.33;;;;;22.14;66.63;101749.50;5070878;28;51463;-63
2022/04/10 03:06:19;;;;;;;;;12.67;9.33;;;;;22.16;66.40;101741.44;5076776;28;47403;-63
2022/04/10 03:08:44;;;;;;;;;11.67;11.33;;;;;22.17;66.63;101753.94;5076743;28;45377;-63
2022/04/10 03:11:09;;;;;;;;;13.00;9.67;;;;;22.15;66.37;101753.97;5074663;28;57225;-65
2022/04/10 03:13:35;;;;;;;;;10.33;10.33;;;;;22.15;66.32;101750.38;5075543;28;53929;-65
2022/04/10 03:16:00;;;;;;;;;9.33;9.33;;;;;22.18;66.62;101750.34;5076480;28;58765;-63
2022/04/10 03:18:26;;;;;;;;;8.00;8.00;;;;;22.20;66.04;101759.25;5076817;28;45381;-62
2022/04/10 03:20:51;;;;;;;;;12.00;10.33;;;;;22.19;66.17;101754.78;5074363;28;45213;-63
2022/04/10 03:23:17;;;;;;;;;12.00;12.00;;;;;22.19;66.34;101757.47;5076645;28;45629;-63
2022/04/10 03:25:43;;;;;;;;;10.67;9.33;;;;;22.20;66.02;101760.13;5057989;28;46670;-63
2022/04/10 03:28:08;;;;;;;;;10.67;10.67;;;;;22.19;66.17;101760.16;5067165;28;45320;-63
2022/04/10 03:30:33;;;;;;;;;14.00;11.00;;;;;22.17;66.32;101748.56;5073706;28;45449;-64
2022/04/10 03:32:59;;;;;;;;;9.00;8.33;;;;;22.17;65.81;101757.53;5071424;28;47105;-64
2022/04/10 03:35:24;;;;;;;;;10.67;10.67;;;;;22.15;66.15;101748.59;5071181;28;61289;-63
2022/04/10 03:37:49;;;;;;;;;13.00;11.33;;;;;22.15;65.64;101751.28;5075895;28;58181;-64
2022/04/10 03:40:15;;;;;;;;;15.33;12.00;;;;;22.17;66.18;101764.72;5076175;28;47089;-64
2022/04/10 03:42:40;;;;;;;;;10.33;10.33;;;;;22.14;66.13;101751.31;5071884;28;45207;-63
2022/04/10 03:45:07;;;;;;;;;14.00;11.00;;;;;22.13;66.00;101752.25;5068467;28;47619;-64
2022/04/10 03:47:33;;;;;;;;;10.33;10.33;;;;;22.13;65.70;101763.88;5074293;28;45445;-63
2022/04/10 03:49:58;;;;;;;;;10.00;8.33;;;;;22.12;65.45;101758.53;5074371;28;45213;-63
2022/04/10 03:52:24;;;;;;;;;10.67;10.00;;;;;22.11;65.43;101754.97;5076381;28;45139;-64
2022/04/10 03:54:49;;;;;;;;;11.00;9.67;;;;;22.10;65.63;101747.78;5074611;28;61535;-63
2022/04/10 03:57:14;;;;;;;;;11.00;11.00;;;;;22.10;65.72;101760.34;5070717;28;45359;-63
2022/04/10 03:59:40;;;;;;;;;11.00;9.67;;;;;22.09;65.73;101759.44;5075051;28;54167;-64
2022/04/10 04:02:05;;;;;;;;;10.67;10.67;;;;;22.11;65.72;101756.78;5074605;28;50519;-66
2022/04/10 04:04:30;;;;;;;;;11.00;9.67;;;;;22.09;65.70;101763.94;5070650;28;58640;-63
2022/04/10 04:06:56;;;;;;;;;9.00;9.00;;;;;22.09;65.85;101755.88;5057061;28;57348;-65
2022/04/10 04:09:21;;;;;;;;;13.00;10.67;;;;;22.08;65.90;101751.41;5073439;28;45846;-63
2022/04/10 04:11:46;;;;;;;;;15.33;12.00;;;;;22.08;65.49;101749.63;5069892;28;55665;-63
2022/04/10 04:14:13;;;;;;;;;12.00;12.00;;;;;22.07;65.39;101753.22;5075234;28;59200;-63
2022/04/10 04:16:39;;;;;;;;;12.33;11.33;;;;;22.07;65.49;101749.66;5068560;28;45505;-63
2022/04/10 04:19:05;;;;;;;;;10.00;10.00;;;;;22.07;65.81;101742.47;5075143;28;45283;-64
2022/04/10 04:21:30;;;;;;;;;12.33;11.00;;;;;22.07;65.64;101763.09;5074990;28;45262;-65
2022/04/10 04:23:56;;;;;;;;;11.00;10.00;;;;;22.06;65.35;101756.84;5067646;28;52692;-65
2022/04/10 04:26:21;;;;;;;;;10.00;10.00;;;;;22.04;65.84;101750.59;5075565;28;45438;-63
2022/04/10 04:28:46;;;;;;;;;10.67;10.67;;;;;22.04;65.46;101747.03;5075159;28;55361;-64
2022/04/10 04:31:12;;;;;;;;;10.33;10.33;;;;;22.05;65.50;101756.84;5063068;28;52646;-64
2022/04/10 04:33:37;;;;;;;;;11.00;10.00;;;;;22.05;65.54;101764.94;5068474;28;63316;-63
2022/04/10 04:36:03;;;;;;;;;9.33;9.33;;;;;22.05;65.43;101770.31;5075379;28;45287;-64
2022/04/10 04:38:28;;;;;;;;;9.00;9.00;;;;;22.02;65.17;101765.00;5073280;28;45534;-66
2022/04/10 04:40:53;;;;;;;;;11.67;9.67;;;;;22.04;65.36;101773.91;5077884;28;53070;-66
2022/04/10 04:43:19;;;;;;;;;12.00;10.33;;;;;22.02;65.23;101767.69;5075324;28;59358;-65
2022/04/10 04:45:44;;;;;;;;;15.33;12.00;;;;;22.02;65.22;101773.09;5076816;28;45292;-65
2022/04/10 04:48:09;;;;;;;;;11.00;9.67;;;;;22.03;65.64;101783.78;5056866;28;58859;-63
2022/04/10 04:50:35;;;;;;;;;10.00;10.00;;;;;22.04;65.46;101784.69;5071020;28;45487;-63
2022/04/10 04:53:00;;;;;;;;;10.00;9.00;;;;;22.04;65.63;101790.06;5072158;28;61193;-65
2022/04/10 04:55:25;;;;;;;;;12.00;10.00;;;;;22.03;65.21;101796.38;5076103;28;57526;-63
2022/04/10 04:57:51;;;;;;;;;12.33;9.67;;;;;22.04;64.82;101790.06;5071003;28;45501;-65
2022/04/10 05:00:16;;;;;;;;;11.67;10.67;;;;;22.04;65.05;101795.44;5074406;28;46910;-65
2022/04/10 05:02:41;;;;;;;;;13.33;11.67;;;;;22.03;65.22;101790.97;5073785;28;47600;-64
2022/04/10 05:05:07;;;;;;;;;12.00;10.00;;;;;22.05;64.67;101802.56;5075125;28;50536;-64
2022/04/10 05:10:54;;;;;;;;;9.67;9.67;;;;;22.03;64.63;101799.06;5077162;28;45351;-66
2022/04/10 05:13:20;;;;;;;;;14.67;10.67;;;;;22.04;64.98;101798.13;5076484;28;61537;-64
2022/04/10 05:15:45;;;;;;;;;10.00;10.00;;;;;22.02;64.79;101799.97;5077631;28;59389;-66
2022/04/10 05:18:13;;;;;;;;;8.00;8.00;;;;;22.03;64.71;101808.00;5074871;28;53622;-65
2022/04/10 05:20:38;;;;;;;;;11.33;9.00;;;;;22.02;65.09;101794.59;5073449;28;45417;-65
2022/04/10 05:23:04;;;;;;;;;10.33;9.00;;;;;22.04;64.90;101800.81;5073078;28;45581;-66
2022/04/10 05:25:29;;;;;;;;;11.00;10.00;;;;;22.04;65.00;101803.50;5058647;28;45357;-64
2022/04/10 05:27:54;;;;;;;;;9.33;9.33;;;;;22.03;64.37;101799.94;5059097;28;45399;-64
2022/04/10 05:30:20;;;;;;;;;9.00;9.00;;;;;22.04;64.39;101808.88;5059091;28;50616;-64
2022/04/10 05:32:45;;;;;;;;;10.00;8.67;;;;;22.04;64.36;101814.25;5072194;28;47341;-66
2022/04/10 05:35:11;;;;;;;;;9.00;9.00;;;;;22.02;64.23;101808.03;5058622;28;45266;-64
2022/04/10 05:37:37;;;;;;;;;8.33;7.00;;;;;22.04;64.55;101816.94;5058539;28;45400;-67
2022/04/10 05:40:04;;;;;;;;;9.67;9.00;;;;;22.05;64.21;101816.03;5078512;28;45480;-64
2022/04/10 05:42:29;;;;;;;;;8.00;8.00;;;;;22.03;64.09;101821.44;5077620;28;47672;-63
2022/04/10 05:45:01;;;;;;;;;9.67;8.33;;;;;22.06;64.26;101825.91;5078281;28;45438;-64
2022/04/10 05:47:27;;;;;;;;;8.00;8.00;;;;;22.06;63.88;101834.84;5077358;28;45552;-64
2022/04/10 05:49:52;;;;;;;;;7.00;7.00;;;;;22.06;64.20;101832.16;5075771;28;45359;-62
2022/04/10 05:52:17;;;;;;;;;10.00;8.00;;;;;22.06;64.31;101828.59;5074918;28;60814;-66
2022/04/10 05:54:43;;;;;;;;;16.00;8.67;;;;;22.05;64.23;101838.47;5072840;28;59782;-65
2022/04/10 05:57:08;;;;;;;;;10.00;8.00;;;;;22.05;63.67;101841.16;5074560;28;45477;-66
2022/04/10 05:59:33;;;;;;;;;9.67;9.00;;;;;22.04;64.05;101838.47;5077513;28;45586;-64
2022/04/10 06:01:59;;;;;;;;;11.00;8.67;;;;;22.07;64.01;101833.91;5076129;28;61439;-68
2022/04/10 06:04:24;;;;;;;;;8.00;8.00;;;;;22.07;63.43;101830.34;5077619;28;45994;-66
2022/04/10 06:06:50;;;;;;;;;10.00;7.33;;;;;22.07;63.63;101844.69;5065665;28;45471;-67
2022/04/10 06:09:15;;;;;;;;;8.00;8.00;;;;;22.06;64.06;101839.34;5052328;28;46317;-66
2022/04/10 06:11:40;;;;;;;;;7.33;6.33;;;;;22.05;63.76;101834.84;5072911;28;46094;-66
2022/04/10 06:14:06;;;;;;;;;8.67;8.67;;;;;22.06;63.31;101845.59;5054086;28;45458;-66
2022/04/10 06:16:31;;;;;;;;;11.33;9.00;;;;;22.07;63.37;101850.06;5074304;28;51450;-67
2022/04/10 06:18:57;;;;;;;;;10.33;9.00;;;;;22.03;63.60;101842.09;5072935;28;53293;-66
2022/04/10 06:21:23;;;;;;;;;7.00;7.00;;;;;22.06;63.33;101847.41;5074357;28;46062;-64
2022/04/10 06:23:48;;;;;;;;;7.00;7.00;;;;;22.06;63.81;101851.00;5072257;28;45306;-68
2022/04/10 06:26:13;;;;;;;;;8.00;8.00;;;;;22.08;63.30;101854.53;5076658;28;55352;-65
2022/04/10 06:28:39;;;;;;;;;9.00;9.00;;;;;22.08;63.87;101850.94;5077462;28;45685;-66
2022/04/10 06:31:04;;;;;;;;;9.67;9.67;;;;;22.08;63.77;101845.56;5069839;28;59253;-66
2022/04/10 06:33:29;;;;;;;;;9.67;8.00;;;;;22.07;63.61;101852.75;5075002;28;45341;-66
2022/04/10 06:35:55;;;;;;;;;8.00;8.00;;;;;22.08;63.71;101851.84;5078227;28;56708;-65
2022/04/10 06:38:20;;;;;;;;;8.00;8.00;;;;;22.07;63.13;101843.81;5075330;28;45216;-64
2022/04/10 06:40:47;;;;;;;;;10.33;9.67;;;;;22.06;63.19;101850.09;5068776;28;46434;-66
2022/04/10 06:43:13;;;;;;;;;7.00;7.00;;;;;22.05;63.32;101845.63;5071391;28;45569;-65
2022/04/10 06:45:38;;;;;;;;;8.00;8.00;;;;;22.05;63.11;101851.00;5075422;28;45498;-66
2022/04/10 06:48:06;;;;;;;;;9.00;9.00;;;;;22.07;63.65;101846.50;5076362;28;55288;-68
2022/04/10 06:50:31;;;;;;;;;10.00;8.00;;;;;22.08;63.45;101859.00;5074523;28;47652;-66
2022/04/10 06:52:57;;;;;;;;;7.00;7.00;;;;;22.06;63.17;101842.03;5055085;28;45232;-65
2022/04/10 06:55:22;;;;;;;;;8.33;8.00;;;;;22.07;63.36;101841.13;5067118;28;55897;-67
2022/04/10 06:57:47;;;;;;;;;9.67;9.67;;;;;22.07;63.31;101847.38;5070585;28;50505;-68
2022/04/10 07:00:13;;;;;;;;;9.33;8.00;;;;;22.09;63.38;101852.72;5065656;28;59095;-67
2022/04/10 07:02:39;;;;;;;;;8.00;8.00;;;;;22.09;63.27;101847.34;5071907;28;46281;-64
2022/04/10 07:05:05;;;;;;;;;11.00;9.00;;;;;22.13;63.12;101849.09;5064004;28;54159;-65
2022/04/10 07:07:30;;;;;;;;;7.33;7.33;;;;;22.14;62.77;101846.34;5062446;28;45478;-64
2022/04/10 07:09:58;;;;;;;;;10.67;8.00;;;;;22.16;62.94;101838.28;5075675;28;61301;-62
2022/04/10 07:12:23;;;;;;;;;10.00;10.00;;;;;22.19;63.00;101846.25;5066865;28;45475;-65
2022/04/10 07:14:49;;;;;;;;;9.00;8.33;;;;;22.19;62.75;101838.19;5070240;28;45424;-64
2022/04/10 07:17:14;;;;;;;;;9.00;9.00;;;;;22.21;63.00;101847.09;5070469;28;45393;-64
2022/04/10 07:19:40;;;;;;;;;11.00;9.00;;;;;22.21;62.37;101841.72;5073828;28;46482;-64
2022/04/10 07:24:49;;;;;;;;;9.33;9.33;;;;;22.22;62.71;101839.03;5076029;28;45576;-66
2022/04/10 07:27:14;;;;;;;;;9.33;9.00;;;;;22.23;62.62;101839.91;5072410;28;45619;-65
2022/04/10 07:29:39;;;;;;;;;9.33;8.00;;;;;22.26;62.64;101850.59;5066176;28;55640;-67
2022/04/10 07:32:05;;;;;;;;;10.33;9.00;;;;;22.26;62.79;101844.31;5068620;28;50866;-64
2022/04/10 07:34:31;;;;;;;;;10.00;8.00;;;;;22.25;62.61;101847.94;5063091;28;46032;-62
2022/04/10 07:36:56;;;;;;;;;11.00;10.00;;;;;22.24;62.84;101847.06;5074360;28;55713;-65
2022/04/10 07:39:21;;;;;;;;;10.00;10.00;;;;;22.23;62.46;101842.59;5072429;28;61334;-64
2022/04/10 07:41:47;;;;;;;;;11.00;9.33;;;;;22.23;62.44;101845.28;5069001;28;60861;-65
2022/04/10 07:44:12;;;;;;;;;10.33;9.00;;;;;22.25;62.47;101853.31;5069834;28;45436;-63
2022/04/10 07:49:21;;;;;;;;;9.33;9.33;;;;;22.23;62.19;101851.56;5071460;28;45711;-62
2022/04/10 07:51:46;;;;;;;;;8.67;8.67;;;;;22.22;62.41;101844.41;5066146;28;61016;-64
2022/04/10 07:54:12;;;;;;;;;9.67;9.67;;;;;22.21;62.38;101852.47;5064480;28;45644;-62
2022/04/10 07:56:37;;;;;;;;;10.00;10.00;;;;;22.22;62.80;101847.09;5065016;28;53522;-62
2022/04/10 07:59:02;;;;;;;;;9.00;8.00;;;;;22.21;62.28;101848.03;5069445;28;64213;-62
2022/04/10 08:01:28;;;;;;;;;10.67;10.33;;;;;22.21;62.08;101848.03;5074455;28;59438;-64
2022/04/10 08:03:53;;;;;;;;;9.00;9.00;;;;;22.20;62.56;101848.03;5072773;28;45467;-63
2022/04/10 08:06:19;;;;;;;;;10.33;10.33;;;;;22.19;62.25;101843.56;5074629;28;45407;-62
2022/04/10 08:08:44;;;;;;;;;11.00;10.00;;;;;22.20;62.37;101834.56;5069127;28;46865;-63
2022/04/10 08:11:10;;;;;;;;;13.33;13.33;;;;;22.26;62.14;101844.31;5071957;28;46525;-61
2022/04/10 08:13:35;;;;;;;;;10.33;9.00;;;;;22.26;62.57;101839.81;5066400;28;54851;-62
2022/04/10 08:16:01;;;;;;;;;17.00;13.33;;;;;22.28;62.45;101848.75;5077608;28;45772;-62
2022/04/10 08:18:27;;;;;;;;;11.67;10.33;;;;;22.28;62.18;101838.00;5072562;28;46458;-62
2022/04/10 08:20:52;;;;;;;;;10.67;10.33;;;;;22.30;61.78;101841.53;5078103;28;45447;-62
2022/04/10 08:23:18;;;;;;;;;8.67;8.33;;;;;22.30;62.30;101830.78;5076036;28;45410;-64
2022/04/10 08:25:43;;;;;;;;;7.67;7.67;;;;;22.32;62.16;101842.41;5071506;28;45438;-63
2022/04/10 08:28:09;;;;;;;;;8.00;7.00;;;;;22.33;62.04;101841.47;5074316;28;46653;-63
2022/04/10 08:30:34;;;;;;;;;10.00;10.00;;;;;22.36;61.93;101841.41;5074032;28;45282;-63
2022/04/10 08:33:00;;;;;;;;;10.67;10.67;;;;;22.37;61.68;101839.59;5075780;28;52834;-65
2022/04/10 08:35:25;;;;;;;;;9.33;8.33;;;;;22.39;62.05;101840.47;5075257;28;45662;-62
2022/04/10 08:37:51;;;;;;;;;10.33;8.67;;;;;22.39;61.80;101838.66;5068149;28;47132;-63
2022/04/10 08:40:17;;;;;;;;;10.00;9.00;;;;;22.40;61.80;101842.22;5072404;28;45493;-62
2022/04/10 08:43:30;;;;;;;;;10.67;10.00;;;;;22.41;61.79;101850.25;5047795;28;45424;-62
2022/04/10 08:45:58;;;;;;;;;9.00;9.00;;;;;22.38;61.87;101847.66;5073529;28;45458;-61
2022/04/10 08:48:26;;;;;;;;;7.67;7.67;;;;;22.40;61.91;101853.88;5075673;28;45962;-64
2022/04/10 08:50:53;;;;;;;;;8.33;8.33;;;;;22.41;61.65;101849.38;5074290;28;45205;-62
2022/04/10 08:53:19;;;;;;;;;9.67;8.33;;;;;22.42;61.96;101848.44;5071551;28;45501;-62
2022/04/10 08:55:44;;;;;;;;;9.00;9.00;;;;;22.40;61.62;101842.22;5052392;28;55239;-62
2022/04/10 08:58:09;;;;;;;;;10.33;8.33;;;;;22.41;61.41;101847.56;5066756;28;63359;-62
2022/04/10 09:00:35;;;;;;;;;9.00;9.00;;;;;22.41;61.72;101844.00;5077416;28;45309;-63
2022/04/10 09:03:00;;;;;;;;;9.00;8.00;;;;;22.41;61.13;101846.69;5070988;28;45429;-61
2022/04/10 09:05:26;;;;;;;;;7.67;7.67;;;;;22.40;61.11;101845.81;5066797;28;55706;-61
2022/04/10 09:08:11;;;;;;;;;8.00;7.33;;;;;22.41;61.20;101850.25;5062162;28;47515;-61
2022/04/10 09:11:02;;;;;;;;;9.00;8.00;;;;;22.40;61.42;101853.88;5076912;28;45302;-64
2022/04/10 09:13:32;;;;;;;;;6.00;4.00;;;;;22.39;60.84;101838.66;5064705;28;45540;-65
2022/04/10 09:16:13;;;;;;;;;8.33;6.67;;;;;22.39;60.58;101845.84;5076909;28;46047;-61
2022/04/10 09:18:56;;;;;;;;;7.67;7.67;;;;;22.37;60.52;101844.97;5072350;28;45627;-61
2022/04/10 09:21:28;;;;;;;;;7.00;6.00;;;;;22.40;60.90;101837.72;5071769;28;45505;-62
2022/04/10 09:24:05;;;;;;;;;6.67;5.67;;;;;22.42;60.28;101845.75;5072975;28;45518;-62
2022/04/10 09:26:50;;;;;;;;;5.00;4.00;;;;;22.41;60.52;101833.22;5074120;28;45473;-64
2022/04/10 09:29:20;;;;;;;;;6.00;5.00;;;;;22.44;60.30;101842.13;5075643;28;47767;-62
2022/04/10 09:31:46;;;;;;;;;5.67;5.00;;;;;22.46;60.30;101842.97;5074094;28;45466;-62
2022/04/10 09:34:15;;;;;;;;;5.67;5.00;;;;;22.50;60.46;101849.19;5076661;28;45833;-62
2022/04/10 09:36:42;;;;;;;;;6.00;4.00;;;;;22.52;60.23;101841.94;5071845;28;45528;-62
2022/04/10 09:39:13;;;;;;;;;4.00;4.00;;;;;22.55;60.17;101846.38;5076338;28;45655;-62
2022/04/10 09:41:40;;;;;;;;;9.67;5.67;;;;;22.56;60.13;101845.47;5075831;28;45422;-62
2022/04/10 09:44:21;;;;;;;;;5.67;4.00;;;;;22.57;60.50;101840.03;5070962;28;45386;-63
2022/04/10 09:47:06;;;;;;;;;7.67;3.00;;;;;22.57;60.12;101841.84;5044939;28;45523;-64
2022/04/10 09:49:32;;;;;;;;;4.33;4.33;;;;;22.57;59.98;101848.09;5075289;28;46742;-62
2022/04/10 09:52:09;;;;;;;;;3.00;3.00;;;;;22.58;60.24;101847.19;5076115;28;45600;-63
2022/04/10 09:54:40;;;;;;;;;5.00;5.00;;;;;22.56;59.79;101837.38;5077799;28;45478;-62
2022/04/10 09:57:11;;;;;;;;;4.00;4.00;;;;;22.57;59.87;101833.75;5072732;28;45346;-64
2022/04/10 09:59:40;;;;;;;;;4.67;4.67;;;;;22.57;60.27;101840.03;5076024;28;46840;-62
2022/04/10 10:02:06;;;;;;;;;3.33;3.33;;;;;22.56;59.79;101832.88;5077730;28;45401;-61
2022/04/10 10:04:34;;;;;;;;;4.00;4.00;;;;;22.56;59.99;101837.38;5077651;28;45536;-65
2022/04/10 10:07:02;;;;;;;;;8.00;4.00;;;;;22.57;59.77;101834.66;5070578;28;45399;-64
2022/04/10 10:09:29;;;;;;;;;3.00;3.00;;;;;22.56;59.77;101832.88;5051512;28;45534;-62
2022/04/10 10:11:54;;;;;;;;;3.00;3.00;;;;;22.56;59.69;101834.69;5051076;28;45549;-65
2022/04/10 10:14:19;;;;;;;;;5.00;3.00;;;;;22.55;59.75;101823.03;5048146;28;45589;-62
2022/04/10 10:16:45;;;;;;;;;3.33;3.33;;;;;22.53;59.89;101827.59;5077020;28;56194;-62
2022/04/10 10:19:10;;;;;;;;;5.00;3.00;;;;;22.52;60.03;101822.22;5074929;28;57209;-64
2022/04/10 10:21:36;;;;;;;;;3.00;1.00;;;;;22.52;59.71;101830.28;5076372;28;61677;-63
2022/04/10 10:24:03;;;;;;;;;4.00;3.00;;;;;22.51;59.80;101829.41;5052079;28;45508;-62
2022/04/10 10:26:43;;;;;;;;;3.00;3.00;;;;;22.51;59.67;101817.75;5070895;28;45268;-62
2022/04/10 10:29:30;;;;;;;;;2.00;2.00;;;;;22.51;59.51;101815.94;5055617;28;46286;-63
2022/04/10 10:32:02;;;;;;;;;3.00;3.00;;;;;22.48;59.58;101816.91;5075226;28;45490;-62
2022/04/10 10:34:28;;;;;;;;;3.67;3.67;;;;;22.48;59.62;101807.97;5076979;28;45222;-62
2022/04/10 10:36:54;;;;;;;;;2.33;2.33;;;;;22.47;59.66;101812.44;5077743;28;45567;-63
2022/04/10 10:39:20;;;;;;;;;3.33;3.33;;;;;22.48;59.63;101814.22;5076778;28;47438;-62
2022/04/10 10:41:50;;;;;;;;;3.00;3.00;;;;;22.47;59.67;101800.78;5075038;28;45573;-62
2022/04/10 10:44:19;;;;;;;;;4.00;3.00;;;;;22.46;59.83;101799.91;5077342;28;45523;-62
2022/04/10 10:47:00;;;;;;;;;2.00;2.00;;;;;22.48;59.71;101802.59;5058667;28;45951;-62
2022/04/10 10:49:27;;;;;;;;;2.00;2.00;;;;;22.47;59.58;101803.47;5076635;28;47440;-61
2022/04/10 10:51:55;;;;;;;;;2.00;2.00;;;;;22.47;59.97;101798.97;5074791;28;45449;-64
2022/04/10 10:54:44;;;;;;;;;2.00;2.00;;;;;22.49;59.91;101798.97;5075217;28;45287;-64
2022/04/10 10:57:37;;;;;;;;;2.00;2.00;;;;;22.47;59.90;101785.53;5069072;28;45263;-63
2022/04/10 11:00:18;;;;;;;;;2.00;2.00;;;;;22.47;60.24;101792.72;5076520;28;46490;-62
2022/04/10 11:02:51;;;;;;;;;2.00;2.00;;;;;22.46;60.12;101783.75;5076651;28;45305;-65
2022/04/10 11:05:36;;;;;;;;;2.33;2.33;;;;;22.45;60.13;101787.38;5075178;28;45141;-62
2022/04/10 11:08:09;;;;;;;;;1.67;1.67;;;;;22.46;59.98;101780.19;5070793;28;45536;-62
2022/04/10 11:10:39;;;;;;;;;3.00;1.33;;;;;22.45;59.96;101782.00;5072489;28;47187;-65
2022/04/10 11:13:09;;;;;;;;;3.00;2.00;;;;;22.45;60.20;101779.31;5070227;28;45378;-63
2022/04/10 11:15:54;;;;;;;;;1.67;1.67;;;;;22.42;59.68;101765.91;5076229;28;45546;-63
2022/04/10 11:18:23;;;;;;;;;2.67;2.67;;;;;22.44;59.71;101769.47;5068609;28;45493;-62
2022/04/10 11:21:08;;;;;;;;;1.00;1.00;;;;;22.43;59.82;101761.44;5069803;28;46711;-62
2022/04/10 11:23:39;;;;;;;;;2.67;2.00;;;;;22.42;59.66;101756.94;5070893;28;45575;-62
2022/04/10 11:26:09;;;;;;;;;1.33;1.33;;;;;22.42;59.71;101760.53;5076740;28;45224;-62